createdAt,value
2022-10-20T00:01:50.991Z,26.63
2022-10-20T00:04:17.628Z,28.20
2022-10-20T00:06:44.335Z,28.57
2022-10-20T00:09:11.507Z,27.77
2022-10-20T00:11:38.342Z,25.83
2022-10-20T00:14:05.684Z,29.10
2022-10-20T00:16:37.381Z,27.40
2022-10-20T00:19:04.708Z,28.27
2022-10-20T00:21:32.412Z,27.93
2022-10-20T00:24:01.346Z,26.67
2022-10-20T00:26:29.678Z,25.37
2022-10-20T00:28:56.700Z,26.77
2022-10-20T00:31:25.056Z,28.63
2022-10-20T00:33:51.740Z,25.67
2022-10-20T00:36:20.594Z,27.63
2022-10-20T00:38:47.458Z,25.63
2022-10-20T00:41:16.006Z,25.80
2022-10-20T00:43:53.236Z,26.50
2022-10-20T00:46:23.211Z,26.30
2022-10-20T00:48:56.925Z,27.57
2022-10-20T00:51:27.096Z,25.87
2022-10-20T00:53:59.663Z,28.30
2022-10-20T00:56:26.518Z,27.60
2022-10-20T00:58:53.400Z,29.27
2022-10-20T01:01:20.176Z,24.70
2022-10-20T01:03:52.475Z,35.10
2022-10-20T01:06:22.270Z,28.80
2022-10-20T01:08:51.549Z,26.60
2022-10-20T01:11:41.854Z,28.00
2022-10-20T01:14:27.024Z,26.30
2022-10-20T01:17:16.662Z,24.37
2022-10-20T01:20:02.360Z,24.37
2022-10-20T01:22:34.715Z,26.00
2022-10-20T01:25:17.477Z,22.33
2022-10-20T01:27:52.741Z,24.80
2022-10-20T01:30:21.970Z,24.43
2022-10-20T01:32:51.584Z,25.83
2022-10-20T01:35:27.380Z,24.80
2022-10-20T01:38:12.392Z,23.27
2022-10-20T01:40:43.953Z,23.73
2022-10-20T01:43:15.012Z,22.97
2022-10-20T01:45:46.445Z,20.40
2022-10-20T01:48:14.686Z,22.60
2022-10-20T01:50:42.665Z,22.30
2022-10-20T01:53:09.512Z,23.77
2022-10-20T01:55:38.225Z,23.63
2022-10-20T01:58:23.174Z,20.50
2022-10-20T02:00:52.820Z,20.63
2022-10-20T02:03:38.479Z,19.43
2022-10-20T02:06:23.936Z,24.13
2022-10-20T02:08:58.211Z,24.20
2022-10-20T02:11:26.706Z,21.47
2022-10-20T02:13:56.476Z,22.63
2022-10-20T02:16:51.543Z,20.87
2022-10-20T02:19:22.299Z,19.87
2022-10-20T02:21:51.648Z,19.90
2022-10-20T02:24:22.037Z,21.77
2022-10-20T02:26:51.190Z,19.73
2022-10-20T02:29:22.722Z,20.57
2022-10-20T02:31:49.443Z,21.53
2022-10-20T02:34:16.376Z,23.73
2022-10-20T02:36:43.800Z,25.30
2022-10-20T02:39:11.792Z,22.10
2022-10-20T02:41:38.505Z,21.13
2022-10-20T02:44:05.360Z,21.13
2022-10-20T02:46:32.007Z,20.80
2022-10-20T02:48:58.672Z,19.97
2022-10-20T02:51:25.377Z,19.90
2022-10-20T02:53:52.057Z,27.50
2022-10-20T02:56:18.891Z,19.80
2022-10-20T02:58:45.612Z,22.00
2022-10-20T03:01:12.470Z,20.13
2022-10-20T03:03:39.326Z,18.43
2022-10-20T03:06:11.488Z,19.83
2022-10-20T03:08:38.275Z,21.77
2022-10-20T03:11:05.210Z,20.33
2022-10-20T03:13:32.101Z,20.83
2022-10-20T03:15:59.568Z,18.77
2022-10-20T03:18:26.270Z,18.63
2022-10-20T03:20:53.784Z,18.67
2022-10-20T03:23:20.905Z,23.13
2022-10-20T03:25:48.125Z,19.13
2022-10-20T03:28:14.857Z,17.97
2022-10-20T03:30:41.545Z,17.90
2022-10-20T03:33:08.193Z,19.47
2022-10-20T03:35:34.861Z,19.80
2022-10-20T03:38:01.525Z,18.90
2022-10-20T03:40:28.199Z,17.67
2022-10-20T03:42:54.907Z,22.70
2022-10-20T03:45:21.635Z,19.93
2022-10-20T03:47:48.477Z,18.93
2022-10-20T03:50:15.199Z,18.13
2022-10-20T03:52:42.063Z,22.67
2022-10-20T03:55:09.105Z,18.40
2022-10-20T03:57:36.081Z,20.43
2022-10-20T04:00:03.336Z,20.13
2022-10-20T04:02:37.402Z,21.87
2022-10-20T04:05:05.794Z,20.57
2022-10-20T04:07:32.512Z,18.63
2022-10-20T04:10:02.146Z,18.60
2022-10-20T04:12:28.931Z,19.33
2022-10-20T04:14:55.597Z,19.73
2022-10-20T04:17:22.467Z,16.93
2022-10-20T04:19:49.171Z,20.13
2022-10-20T04:22:16.061Z,20.00
2022-10-20T04:24:42.793Z,16.47
2022-10-20T04:27:09.500Z,16.70
2022-10-20T04:29:36.257Z,19.57
2022-10-20T04:32:03.196Z,17.10
2022-10-20T04:34:29.870Z,14.83
2022-10-20T04:36:56.778Z,17.20
2022-10-20T04:39:23.555Z,18.73
2022-10-20T04:41:50.220Z,16.40
2022-10-20T04:44:17.228Z,15.60
2022-10-20T04:46:44.130Z,16.73
2022-10-20T04:49:13.443Z,17.50
2022-10-20T04:51:40.105Z,19.50
2022-10-20T04:54:06.767Z,16.37
2022-10-20T04:56:33.507Z,17.90
2022-10-20T04:59:00.237Z,23.43
2022-10-20T05:01:29.937Z,15.17
2022-10-20T05:03:56.858Z,17.87
2022-10-20T05:06:26.593Z,15.87
2022-10-20T05:08:56.006Z,18.03
2022-10-20T05:11:24.284Z,16.27
2022-10-20T05:13:50.967Z,22.97
2022-10-20T05:16:18.577Z,21.00
2022-10-20T05:18:46.498Z,20.13
2022-10-20T05:21:16.105Z,18.43
2022-10-20T05:23:43.786Z,16.03
2022-10-20T05:26:13.497Z,18.40
2022-10-20T05:28:42.787Z,20.57
2022-10-20T05:31:09.695Z,16.90
2022-10-20T05:33:39.556Z,18.47
2022-10-20T05:36:10.698Z,19.17
2022-10-20T05:38:37.721Z,24.37
2022-10-20T05:41:09.337Z,17.20
2022-10-20T05:43:36.014Z,22.17
2022-10-20T05:46:03.589Z,15.60
2022-10-20T05:48:30.772Z,18.10
2022-10-20T05:51:13.768Z,15.20
2022-10-20T05:53:42.603Z,17.20
2022-10-20T05:56:12.884Z,20.03
2022-10-20T05:58:40.290Z,20.53
2022-10-20T06:01:08.708Z,22.63
2022-10-20T06:03:35.936Z,15.70
2022-10-20T06:06:03.353Z,19.50
2022-10-20T06:08:32.319Z,14.87
2022-10-20T06:11:06.436Z,18.27
2022-10-20T06:13:33.693Z,15.97
2022-10-20T06:16:03.268Z,16.07
2022-10-20T06:18:31.849Z,19.23
2022-10-20T06:21:03.142Z,23.77
2022-10-20T06:23:30.158Z,20.77
2022-10-20T06:26:12.079Z,17.80
2022-10-20T06:28:40.956Z,14.33
2022-10-20T06:31:17.727Z,19.23
2022-10-20T06:33:45.058Z,16.43
2022-10-20T06:36:12.678Z,16.13
2022-10-20T06:38:40.105Z,19.57
2022-10-20T06:41:09.392Z,14.70
2022-10-20T06:43:36.368Z,14.47
2022-10-20T06:46:07.081Z,16.83
2022-10-20T06:48:35.071Z,14.17
2022-10-20T06:51:07.426Z,15.57
2022-10-20T06:53:35.428Z,13.97
2022-10-20T06:58:39.255Z,80.27
2022-10-20T07:01:12.404Z,19.53
2022-10-20T07:03:39.810Z,14.03
2022-10-20T07:06:07.956Z,11.83
2022-10-20T07:08:36.239Z,13.10
2022-10-20T07:11:06.498Z,15.53
2022-10-20T07:13:34.762Z,19.87
2022-10-20T07:16:01.543Z,19.87
2022-10-20T07:18:29.615Z,22.10
2022-10-20T07:20:58.176Z,21.83
2022-10-20T07:23:26.554Z,22.63
2022-10-20T07:25:59.891Z,24.20
2022-10-20T07:28:26.601Z,19.87
2022-10-20T07:30:53.284Z,18.53
2022-10-20T07:33:20.327Z,24.93
2022-10-20T07:35:48.068Z,20.00
2022-10-20T07:38:15.078Z,18.30
2022-10-20T07:40:41.735Z,20.60
2022-10-20T07:43:08.390Z,21.47
2022-10-20T07:45:35.014Z,19.30
2022-10-20T07:48:02.033Z,21.07
2022-10-20T07:50:28.705Z,20.53
2022-10-20T07:52:55.551Z,18.13
2022-10-20T07:55:37.486Z,25.43
2022-10-20T07:58:05.108Z,16.90
2022-10-20T08:00:31.847Z,18.07
2022-10-20T08:02:58.677Z,21.87
2022-10-20T08:05:25.354Z,20.43
2022-10-20T08:07:52.267Z,21.07
2022-10-20T08:10:19.233Z,17.27
2022-10-20T08:12:45.933Z,18.60
2022-10-20T08:15:12.678Z,28.67
2022-10-20T08:17:39.481Z,17.43
2022-10-20T08:20:12.406Z,15.10
2022-10-20T08:22:39.436Z,15.50
2022-10-20T08:25:06.882Z,14.43
2022-10-20T08:27:33.692Z,12.37
2022-10-20T08:30:19.093Z,12.67
2022-10-20T08:32:51.373Z,14.90
2022-10-20T08:35:18.221Z,15.33
2022-10-20T08:37:44.870Z,13.10
2022-10-20T08:40:24.964Z,12.23
2022-10-20T08:42:51.940Z,11.63
2022-10-20T08:45:21.934Z,11.10
2022-10-20T08:47:52.026Z,13.00
2022-10-20T08:50:21.480Z,14.00
2022-10-20T08:52:52.409Z,12.43
2022-10-20T08:55:26.238Z,14.73
2022-10-20T08:58:03.128Z,13.67
2022-10-20T09:00:33.728Z,8.60
2022-10-20T09:03:10.544Z,12.93
2022-10-20T09:05:41.241Z,8.53
2022-10-20T09:08:07.904Z,10.43
2022-10-20T09:10:42.407Z,8.30
2022-10-20T09:13:21.004Z,9.90
2022-10-20T09:15:50.331Z,8.03
2022-10-20T09:18:17.608Z,8.37
2022-10-20T09:20:58.219Z,8.20
2022-10-20T09:23:41.055Z,7.90
2022-10-20T09:26:30.602Z,8.23
2022-10-20T09:29:16.378Z,7.27
2022-10-20T09:31:47.797Z,13.20
2022-10-20T09:34:30.899Z,8.30
2022-10-20T09:37:19.050Z,8.13
2022-10-20T09:39:56.241Z,8.07
2022-10-20T09:42:29.968Z,7.63
2022-10-20T09:45:21.700Z,8.00
2022-10-20T09:47:53.521Z,9.10
2022-10-20T09:50:31.491Z,9.20
2022-10-20T09:53:00.260Z,6.53
2022-10-20T09:55:42.343Z,12.00
2022-10-20T09:58:39.797Z,6.83
2022-10-20T10:01:16.827Z,6.30
2022-10-20T10:03:45.968Z,7.67
2022-10-20T10:06:42.255Z,11.00
2022-10-20T10:10:01.348Z,6.87
2022-10-20T10:12:32.451Z,7.20
2022-10-20T10:15:01.661Z,11.00
2022-10-20T10:17:40.682Z,5.03
2022-10-20T10:20:30.952Z,5.27
2022-10-20T10:23:21.537Z,4.93
2022-10-20T10:25:49.570Z,6.83
2022-10-20T10:28:38.582Z,5.67
2022-10-20T10:31:22.121Z,5.57
2022-10-20T10:33:52.199Z,13.40
2022-10-20T10:36:29.119Z,7.40
2022-10-20T10:38:56.713Z,5.67
2022-10-20T10:44:38.104Z,5.33
2022-10-20T10:47:30.014Z,5.97
2022-10-20T10:50:11.254Z,8.93
2022-10-20T10:53:26.044Z,7.40
2022-10-20T10:56:05.013Z,6.67
2022-10-20T10:58:58.755Z,5.30
2022-10-20T11:01:49.431Z,6.00
2022-10-20T11:04:40.441Z,9.10
2022-10-20T11:07:29.159Z,4.37
2022-10-20T11:10:07.817Z,4.00
2022-10-20T11:13:12.093Z,5.40
2022-10-20T11:15:47.735Z,6.07
2022-10-20T11:18:29.553Z,3.30
2022-10-20T11:21:29.005Z,10.93
2022-10-20T11:24:01.538Z,6.03
2022-10-20T11:26:34.963Z,7.17
2022-10-20T11:29:05.602Z,4.90
2022-10-20T11:31:51.747Z,4.27
2022-10-20T11:34:34.184Z,13.40
2022-10-20T11:37:23.547Z,4.83
2022-10-20T11:40:09.203Z,3.80
2022-10-20T11:42:40.420Z,5.37
2022-10-20T11:45:46.285Z,3.70
2022-10-20T11:48:26.669Z,3.37
2022-10-20T11:51:18.959Z,3.43
2022-10-20T11:54:29.938Z,4.80
2022-10-20T11:57:19.939Z,9.63
2022-10-20T12:00:05.227Z,2.93
2022-10-20T12:03:09.985Z,4.83
2022-10-20T12:05:45.524Z,6.63
2022-10-20T12:08:40.210Z,5.90
2022-10-20T12:11:32.913Z,9.30
2022-10-20T12:14:14.739Z,6.53
2022-10-20T12:16:53.860Z,5.43
2022-10-20T12:19:30.814Z,5.00
2022-10-20T12:22:14.579Z,5.70
2022-10-20T12:25:02.602Z,6.37
2022-10-20T12:27:30.340Z,4.43
2022-10-20T12:30:02.631Z,4.10
2022-10-20T12:32:29.238Z,7.93
2022-10-20T12:35:02.084Z,7.00
2022-10-20T12:37:34.767Z,5.27
2022-10-20T12:40:28.092Z,5.63
2022-10-20T12:42:56.035Z,7.17
2022-10-20T12:45:44.325Z,6.90
2022-10-20T12:48:24.041Z,8.73
2022-10-20T12:50:52.088Z,5.00
2022-10-20T12:53:29.522Z,4.33
2022-10-20T12:56:10.383Z,5.47
2022-10-20T12:58:38.929Z,5.20
2022-10-20T13:01:09.843Z,6.53
2022-10-20T13:03:49.459Z,4.43
2022-10-20T13:06:22.302Z,3.83
2022-10-20T13:09:04.459Z,3.37
2022-10-20T13:11:40.833Z,5.20
2022-10-20T13:14:13.468Z,7.50
2022-10-20T13:16:51.644Z,6.33
2022-10-20T13:19:23.961Z,8.67
2022-10-20T13:21:51.297Z,4.17
2022-10-20T13:24:30.440Z,5.17
2022-10-20T13:27:01.927Z,5.00
2022-10-20T13:29:36.760Z,5.67
2022-10-20T13:32:14.507Z,8.53
2022-10-20T13:34:57.272Z,6.00
2022-10-20T13:37:47.168Z,6.23
2022-10-20T13:40:23.742Z,8.00
2022-10-20T13:42:56.861Z,12.00
2022-10-20T13:45:23.468Z,11.57
2022-10-20T13:48:10.426Z,8.23
2022-10-20T13:50:42.597Z,4.30
2022-10-20T13:53:26.105Z,8.57
2022-10-20T13:55:55.644Z,7.80
2022-10-20T13:58:24.145Z,4.67
2022-10-20T14:01:12.733Z,6.30
2022-10-20T14:03:46.946Z,5.43
2022-10-20T14:06:33.873Z,6.63
2022-10-20T14:09:10.432Z,5.50
2022-10-20T14:11:37.415Z,4.50
2022-10-20T14:14:04.101Z,8.43
2022-10-20T14:16:32.844Z,8.23
2022-10-20T14:19:10.560Z,5.57
2022-10-20T14:21:42.690Z,6.20
2022-10-20T14:24:16.819Z,9.63
2022-10-20T14:26:44.483Z,6.13
2022-10-20T14:29:17.267Z,9.00
2022-10-20T14:31:46.162Z,5.73
2022-10-20T14:34:28.985Z,7.20
2022-10-20T14:36:57.902Z,7.40
2022-10-20T14:39:30.481Z,11.00
2022-10-20T14:42:02.050Z,5.93
2022-10-20T14:44:31.770Z,6.93
2022-10-20T14:47:05.363Z,7.60
2022-10-20T14:49:39.834Z,11.20
2022-10-20T14:52:23.712Z,15.60
2022-10-20T14:54:51.395Z,8.90
2022-10-20T14:57:18.067Z,7.83
2022-10-20T15:00:06.317Z,5.90
2022-10-20T15:02:35.224Z,5.60
2022-10-20T15:05:45.017Z,6.37
2022-10-20T15:08:17.450Z,5.40
2022-10-20T15:10:45.156Z,5.53
2022-10-20T15:13:48.905Z,6.23
2022-10-20T15:16:40.361Z,4.43
2022-10-20T15:19:30.742Z,8.60
2022-10-20T15:22:00.922Z,4.23
2022-10-20T15:24:28.687Z,5.27
2022-10-20T15:26:56.980Z,8.40
2022-10-20T15:29:24.388Z,4.20
2022-10-20T15:31:51.370Z,5.63
2022-10-20T15:34:18.038Z,6.90
2022-10-20T15:36:47.553Z,4.93
2022-10-20T15:39:15.740Z,8.13
2022-10-20T15:41:42.895Z,11.10
2022-10-20T15:44:14.345Z,4.50
2022-10-20T15:46:42.666Z,5.10
2022-10-20T15:49:09.768Z,4.90
2022-10-20T15:51:39.964Z,15.73
2022-10-20T15:54:07.404Z,9.23
2022-10-20T15:56:35.408Z,7.93
2022-10-20T15:59:02.704Z,5.27
2022-10-20T16:01:29.801Z,5.13
2022-10-20T16:03:56.543Z,5.80
2022-10-20T16:06:23.708Z,5.70
2022-10-20T16:08:51.507Z,4.63
2022-10-20T16:11:20.617Z,7.67
2022-10-20T16:13:48.042Z,6.70
2022-10-20T16:16:18.242Z,7.20
2022-10-20T16:18:45.381Z,8.07
2022-10-20T16:21:12.647Z,8.40
2022-10-20T16:23:42.186Z,7.87
2022-10-20T16:26:11.123Z,8.77
2022-10-20T16:28:38.136Z,4.73
2022-10-20T16:31:10.411Z,6.07
2022-10-20T16:33:37.812Z,6.37
2022-10-20T16:38:39.039Z,6.57
2022-10-20T16:41:11.486Z,8.70
2022-10-20T16:43:43.421Z,6.17
2022-10-20T16:46:11.842Z,6.03
2022-10-20T16:48:40.439Z,9.80
2022-10-20T16:51:11.881Z,6.53
2022-10-20T16:53:38.824Z,5.60
2022-10-20T16:56:06.310Z,5.10
2022-10-20T16:58:33.200Z,5.97
2022-10-20T17:01:04.344Z,4.93
2022-10-20T17:03:31.210Z,7.90
2022-10-20T17:06:00.263Z,14.90
2022-10-20T17:08:28.117Z,6.10
2022-10-20T17:10:56.458Z,9.63
2022-10-20T17:13:23.253Z,8.60
2022-10-20T17:15:50.322Z,5.57
2022-10-20T17:18:17.602Z,8.30
2022-10-20T17:20:44.412Z,10.20
2022-10-20T17:23:11.322Z,6.83
2022-10-20T17:25:39.013Z,14.27
2022-10-20T17:28:05.933Z,9.63
2022-10-20T17:30:32.652Z,4.23
2022-10-20T17:32:59.530Z,5.53
2022-10-20T17:35:28.422Z,8.27
2022-10-20T17:37:55.066Z,10.03
2022-10-20T17:40:22.130Z,5.20
2022-10-20T17:42:49.059Z,5.47
2022-10-20T17:45:15.804Z,7.53
2022-10-20T17:47:42.525Z,5.00
2022-10-20T17:50:10.215Z,7.57
2022-10-20T17:52:37.521Z,6.73
2022-10-20T17:55:04.931Z,9.70
2022-10-20T17:57:31.734Z,5.90
2022-10-20T17:59:59.535Z,10.10
2022-10-20T18:02:29.533Z,17.10
2022-10-20T18:04:56.199Z,5.90
2022-10-20T18:07:22.935Z,7.23
2022-10-20T18:09:49.620Z,6.10
2022-10-20T18:12:16.661Z,5.37
2022-10-20T18:14:43.303Z,6.30
2022-10-20T18:17:10.852Z,7.73
2022-10-20T18:19:37.521Z,7.60
2022-10-20T18:22:04.453Z,10.27
2022-10-20T18:24:31.180Z,10.23
2022-10-20T18:26:57.990Z,6.90
2022-10-20T18:29:25.974Z,6.97
2022-10-20T18:31:52.782Z,5.80
2022-10-20T18:34:20.715Z,9.90
2022-10-20T18:36:48.298Z,6.07
2022-10-20T18:39:15.869Z,11.70
2022-10-20T18:41:44.071Z,12.93
2022-10-20T18:44:15.996Z,8.10
2022-10-20T18:46:43.195Z,10.90
2022-10-20T18:49:13.057Z,7.13
2022-10-20T18:51:40.629Z,6.43
2022-10-20T18:54:08.964Z,6.87
2022-10-20T18:56:36.369Z,8.07
2022-10-20T18:59:05.717Z,9.67
2022-10-20T19:01:35.051Z,12.20
2022-10-20T19:04:02.976Z,8.40
2022-10-20T19:06:32.315Z,7.57
2022-10-20T19:09:01.612Z,5.80
2022-10-20T19:11:31.585Z,7.43
2022-10-20T19:13:58.912Z,5.90
2022-10-20T19:16:29.198Z,5.60
2022-10-20T19:18:57.591Z,10.63
2022-10-20T19:21:25.047Z,4.97
2022-10-20T19:23:56.018Z,5.17
2022-10-20T19:26:25.335Z,4.80
2022-10-20T19:28:59.639Z,5.77
2022-10-20T19:31:30.804Z,6.27
2022-10-20T19:34:01.516Z,5.97
2022-10-20T19:36:29.468Z,5.77
2022-10-20T19:38:56.482Z,5.70
2022-10-20T19:41:24.389Z,6.80
2022-10-20T19:43:51.097Z,4.73
2022-10-20T19:46:19.622Z,5.63
2022-10-20T19:48:47.617Z,7.30
2022-10-20T19:51:16.275Z,5.93
2022-10-20T19:53:43.125Z,5.63
2022-10-20T19:56:10.857Z,6.70
2022-10-20T19:58:40.347Z,7.40
2022-10-20T20:01:10.120Z,8.60
2022-10-20T20:03:36.813Z,7.80
2022-10-20T20:06:06.489Z,5.97
2022-10-20T20:08:33.807Z,5.73
2022-10-20T20:11:01.752Z,6.20
2022-10-20T20:13:28.653Z,5.70
2022-10-20T20:15:55.397Z,6.00
2022-10-20T20:18:22.181Z,7.87
2022-10-20T20:20:49.582Z,10.37
2022-10-20T20:23:20.072Z,7.57
2022-10-20T20:25:52.504Z,5.87
2022-10-20T20:28:19.205Z,6.00
2022-10-20T20:31:02.059Z,5.47
2022-10-20T20:33:29.641Z,6.27
2022-10-20T20:35:57.948Z,8.13
2022-10-20T20:38:24.655Z,6.37
2022-10-20T20:40:52.092Z,7.07
2022-10-20T20:43:19.061Z,6.37
2022-10-20T20:45:45.920Z,13.30
2022-10-20T20:48:12.579Z,6.83
2022-10-20T20:50:39.380Z,9.07
2022-10-20T20:53:06.021Z,8.47
2022-10-20T20:55:32.757Z,7.37
2022-10-20T20:58:00.032Z,6.27
2022-10-20T21:00:26.738Z,7.00
2022-10-20T21:05:25.086Z,8.87
2022-10-20T21:07:52.792Z,7.00
2022-10-20T21:10:19.420Z,8.63
2022-10-20T21:12:46.090Z,7.57
2022-10-20T21:15:12.803Z,7.07
2022-10-20T21:17:39.448Z,5.73
2022-10-20T21:20:06.665Z,6.63
2022-10-20T21:22:33.299Z,7.73
2022-10-20T21:24:59.962Z,15.53
2022-10-20T21:27:26.619Z,8.07
2022-10-20T21:29:53.315Z,7.73
2022-10-20T21:32:20.416Z,10.23
2022-10-20T21:34:47.308Z,7.17
2022-10-20T21:37:13.959Z,9.53
2022-10-20T21:39:40.629Z,11.70
2022-10-20T21:42:07.280Z,7.73
2022-10-20T21:44:33.958Z,7.73
2022-10-20T21:47:00.597Z,8.37
2022-10-20T21:49:27.241Z,9.33
2022-10-20T21:51:56.658Z,12.93
2022-10-20T21:54:26.086Z,8.30
2022-10-20T21:56:53.938Z,8.20
2022-10-20T21:59:26.212Z,11.10
2022-10-20T22:02:01.986Z,8.13
2022-10-20T22:04:29.871Z,7.00
2022-10-20T22:06:57.346Z,7.33
2022-10-20T22:09:24.304Z,14.70
2022-10-20T22:11:55.200Z,14.30
2022-10-20T22:14:22.682Z,8.43
2022-10-20T22:16:49.373Z,6.87
2022-10-20T22:19:21.473Z,10.53
2022-10-20T22:21:50.186Z,7.87
2022-10-20T22:24:18.654Z,7.87
2022-10-20T22:26:45.838Z,9.23
2022-10-20T22:29:13.083Z,10.53
2022-10-20T22:31:40.560Z,7.67
2022-10-20T22:34:08.032Z,8.57
2022-10-20T22:36:35.133Z,8.20
2022-10-20T22:39:02.019Z,8.13
2022-10-20T22:41:28.747Z,7.27
2022-10-20T22:43:55.419Z,8.83
2022-10-20T22:46:22.099Z,7.07
2022-10-20T22:48:49.074Z,7.20
2022-10-20T22:51:16.181Z,7.60
2022-10-20T22:53:43.508Z,9.73
2022-10-20T22:56:19.708Z,8.87
2022-10-20T22:58:47.651Z,12.13
2022-10-20T23:01:17.210Z,9.70
2022-10-20T23:03:44.584Z,9.37
2022-10-20T23:06:14.430Z,9.90
2022-10-20T23:08:43.968Z,9.03
2022-10-20T23:11:11.061Z,6.73
2022-10-20T23:13:37.766Z,6.83
2022-10-20T23:16:04.948Z,7.93
2022-10-20T23:18:31.731Z,7.07
2022-10-20T23:20:58.490Z,7.10
2022-10-20T23:23:25.645Z,10.90
2022-10-20T23:25:52.688Z,7.07
2022-10-20T23:28:19.827Z,10.33
2022-10-20T23:30:46.655Z,9.47
2022-10-20T23:33:13.580Z,7.60
2022-10-20T23:35:40.367Z,6.77
2022-10-20T23:38:09.370Z,8.53
2022-10-20T23:40:36.781Z,8.60
2022-10-20T23:43:03.570Z,9.60
2022-10-20T23:45:32.859Z,6.43
2022-10-20T23:48:02.120Z,7.40
2022-10-20T23:50:28.773Z,6.33
2022-10-20T23:52:55.408Z,8.10
2022-10-20T23:55:22.048Z,7.33
2022-10-20T23:57:50.634Z,13.53
